Airfield :
LOGIN :

Register | Disclaimer

   EN    FR    IT 

 










Legend :    VFR   Marginal VFR   IFR   Intensive IFR   Very Intensive IFR
Visi :
Ceiling :
>= 8 km
>= 3000ft
5 to 8 km
1000 to 3000 ft
1500m to 5 km
500 to 1000 ft
800 to 1500m
200 to 500 ft
< 800m
< 200 ft
Symbols :   Thunderstorms  Fog  Heavy snow  Heavy precipitations  Wind > 20 kt
SIGMETs :     Misc.  Thunderstorms  Icing  Turbulence  Mountain Waves  Volcanic Ashes







- Airport Elevation : 768 ft
- IATA code : MXP


LIMC - Milano Malpensa

CURRENT METAR :
  • 221250Z 06015KT CAVOK 30/01 Q1012 NOSIG

EXPIRED METARs :
  • 221220Z 04016G26KT CAVOK 30/00 Q1012 NOSIG
  • 221150Z 06014KT 020V090 CAVOK 30/02 Q1012 NOSIG
  • 221120Z 07012KT 020V100 CAVOK 30/01 Q1012 NOSIG
  • 221050Z 05013KT 020V080 CAVOK 30/04 Q1012 NOSIG
  • 221020Z 05015G25KT CAVOK 29/03 Q1012 NOSIG

TAF TAF LIMC
Valid from the 22 at 12:00 until the 23 at 18:00 UTC


221100Z 2212/2318 06015KT 9999 SCT050
BECMG 2220/2222 VRB05KT
No reported NOTAMs for that airfield.
2 SIGMETs reported for the Milano FIR (LIMM) :
 
Severe turbulence
LIMM SIGMET 3 VALID 221305/221705 LIIP
LIMM MILANO FIR SEV TURB FCST E OF LINE N4623 E00834 - N4305 E00956 FL220/420 MOV ESE WKN=
Embedded thunderstorms
LIMM SIGMET 2 VALID 221125/221325 LIIP
LIMM MILANO FIR EMBD TS OBS WI N4546 E01345 - N4413 E00957 - N4338 E01125 - N4326 E01423 - N4516 E01256 - N4546 E01345 TOP FL380 MOV SE NC=



MET'MAP, your aeronautical weather chart ! - Copyright ORBIFLY December 2007 - Disclaimer

ORBIFLY MET'MAP TEAM :

Programming & Development : Alexandra Zaïnal
Concept & Development : Baudouin d'Aumeries
Co-Development & Prog : Marc-Olivier Méhu
Technical & hardware support : Manuel Goepfert

Contact : metmap@orbifly.com




SOURCES & CREDITS :

   NOAA